Terminal Aerodrome Forecast
Issued by NWS

Home | Current Version | Previous Version | Text Only | Print | Product List | Glossary Off
Versions: 1 2 3 4 5 6 7 8 9 10 11 12 13 14 15 16 17 18 19 20 21

000
FTUS43 KABR 291838 AAA
TAFPIR
TAF AMD
KPIR 291838Z 2919/3018 05012KT P6SM SCT250
     FM300100 06008KT P6SM BKN200
     FM301100 01006KT P6SM BKN150
     FM301400 01011KT P6SM BKN130=

USA.gov is the U.S. government's official web portal to all federal, state and local government web resources and services.